sensor_id;sensor_type;location;lat;lon;timestamp;P1;durP1;ratioP1;P2;durP2;ratioP2
43048;SDS011;28673;44.412;11.918;2023-04-03T00:01:18;19.50;;;11.98;;
43048;SDS011;28673;44.412;11.918;2023-04-03T00:03:44;22.60;;;12.32;;
43048;SDS011;28673;44.412;11.918;2023-04-03T00:06:11;19.88;;;11.55;;
43048;SDS011;28673;44.412;11.918;2023-04-03T00:08:37;22.08;;;12.63;;
43048;SDS011;28673;44.412;11.918;2023-04-03T00:11:04;20.33;;;13.32;;
43048;SDS011;28673;44.412;11.918;2023-04-03T00:13:31;19.88;;;12.63;;
43048;SDS011;28673;44.412;11.918;2023-04-03T00:15:57;20.73;;;12.38;;
43048;SDS011;28673;44.412;11.918;2023-04-03T00:18:24;18.60;;;12.32;;
43048;SDS011;28673;44.412;11.918;2023-04-03T00:20:50;18.30;;;13.07;;
43048;SDS011;28673;44.412;11.918;2023-04-03T00:23:16;18.20;;;11.75;;
43048;SDS011;28673;44.412;11.918;2023-04-03T00:25:42;17.88;;;11.10;;
43048;SDS011;28673;44.412;11.918;2023-04-03T00:28:08;17.27;;;10.52;;
43048;SDS011;28673;44.412;11.918;2023-04-03T00:30:35;19.98;;;10.75;;
43048;SDS011;28673;44.412;11.918;2023-04-03T00:33:01;16.60;;;10.30;;
43048;SDS011;28673;44.412;11.918;2023-04-03T00:35:30;16.35;;;12.25;;
43048;SDS011;28673;44.412;11.918;2023-04-03T00:37:56;17.73;;;10.73;;
43048;SDS011;28673;44.412;11.918;2023-04-03T00:40:24;16.90;;;10.05;;
43048;SDS011;28673;44.412;11.918;2023-04-03T00:42:54;18.00;;;9.57;;
43048;SDS011;28673;44.412;11.918;2023-04-03T00:45:24;12.60;;;9.40;;
43048;SDS011;28673;44.412;11.918;2023-04-03T00:48:03;15.05;;;9.05;;
43048;SDS011;28673;44.412;11.918;2023-04-03T00:50:31;14.73;;;9.02;;
43048;SDS011;28673;44.412;11.918;2023-04-03T00:53:00;16.23;;;9.93;;
43048;SDS011;28673;44.412;11.918;2023-04-03T00:55:27;12.35;;;8.60;;
43048;SDS011;28673;44.412;11.918;2023-04-03T00:57:53;13.15;;;8.82;;
43048;SDS011;28673;44.412;11.918;2023-04-03T01:00:21;11.95;;;8.25;;
43048;SDS011;28673;44.412;11.918;2023-04-03T01:02:48;11.57;;;8.00;;
43048;SDS011;28673;44.412;11.918;2023-04-03T01:05:16;15.00;;;8.77;;
43048;SDS011;28673;44.412;11.918;2023-04-03T01:07:44;10.57;;;7.90;;
43048;SDS011;28673;44.412;11.918;2023-04-03T01:10:12;13.20;;;7.68;;
43048;SDS011;28673;44.412;11.918;2023-04-03T01:12:42;12.88;;;8.05;;
43048;SDS011;28673;44.412;11.918;2023-04-03T01:15:13;10.52;;;7.20;;
43048;SDS011;28673;44.412;11.918;2023-04-03T01:25:31;15.25;;;8.50;;
43048;SDS011;28673;44.412;11.918;2023-04-03T01:27:58;11.05;;;7.75;;
43048;SDS011;28673;44.412;11.918;2023-04-03T01:30:26;10.77;;;6.75;;
43048;SDS011;28673;44.412;11.918;2023-04-03T01:32:58;10.10;;;7.38;;
43048;SDS011;28673;44.412;11.918;2023-04-03T01:35:24;11.20;;;7.22;;
43048;SDS011;28673;44.412;11.918;2023-04-03T01:37:51;11.07;;;7.13;;
43048;SDS011;28673;44.412;11.918;2023-04-03T01:40:17;8.27;;;6.43;;
43048;SDS011;28673;44.412;11.918;2023-04-03T01:42:45;16.02;;;7.47;;
43048;SDS011;28673;44.412;11.918;2023-04-03T01:45:11;9.30;;;6.90;;
43048;SDS011;28673;44.412;11.918;2023-04-03T01:47:37;9.63;;;7.07;;
43048;SDS011;28673;44.412;11.918;2023-04-03T01:50:04;8.48;;;6.93;;
43048;SDS011;28673;44.412;11.918;2023-04-03T01:52:32;8.65;;;6.03;;
43048;SDS011;28673;44.412;11.918;2023-04-03T01:54:58;7.22;;;5.28;;
43048;SDS011;28673;44.412;11.918;2023-04-03T01:57:24;8.55;;;5.82;;
43048;SDS011;28673;44.412;11.918;2023-04-03T01:59:50;9.88;;;5.70;;
43048;SDS011;28673;44.412;11.918;2023-04-03T02:02:16;10.80;;;6.65;;
43048;SDS011;28673;44.412;11.918;2023-04-03T02:04:42;11.93;;;6.55;;
43048;SDS011;28673;44.412;11.918;2023-04-03T02:07:08;8.10;;;5.90;;
43048;SDS011;28673;44.412;11.918;2023-04-03T02:09:34;9.85;;;6.03;;
43048;SDS011;28673;44.412;11.918;2023-04-03T02:12:00;8.73;;;6.55;;
43048;SDS011;28673;44.412;11.918;2023-04-03T02:14:26;9.07;;;6.95;;
43048;SDS011;28673;44.412;11.918;2023-04-03T02:16:52;7.95;;;5.57;;
43048;SDS011;28673;44.412;11.918;2023-04-03T02:19:21;7.35;;;5.38;;
43048;SDS011;28673;44.412;11.918;2023-04-03T02:21:47;7.72;;;5.10;;
43048;SDS011;28673;44.412;11.918;2023-04-03T02:24:14;6.57;;;5.10;;
43048;SDS011;28673;44.412;11.918;2023-04-03T02:26:40;9.05;;;5.63;;
43048;SDS011;28673;44.412;11.918;2023-04-03T02:29:06;9.32;;;5.70;;
43048;SDS011;28673;44.412;11.918;2023-04-03T02:31:32;8.02;;;5.90;;
43048;SDS011;28673;44.412;11.918;2023-04-03T02:34:00;6.57;;;5.43;;
43048;SDS011;28673;44.412;11.918;2023-04-03T02:36:33;10.02;;;5.40;;
43048;SDS011;28673;44.412;11.918;2023-04-03T02:39:03;9.27;;;6.80;;
43048;SDS011;28673;44.412;11.918;2023-04-03T02:41:29;12.88;;;7.57;;
43048;SDS011;28673;44.412;11.918;2023-04-03T02:44:01;10.93;;;6.88;;
43048;SDS011;28673;44.412;11.918;2023-04-03T02:46:28;11.93;;;7.68;;
43048;SDS011;28673;44.412;11.918;2023-04-03T02:48:55;10.10;;;7.35;;
43048;SDS011;28673;44.412;11.918;2023-04-03T02:51:21;10.95;;;7.50;;
43048;SDS011;28673;44.412;11.918;2023-04-03T02:53:48;10.05;;;7.68;;
43048;SDS011;28673;44.412;11.918;2023-04-03T02:56:19;13.77;;;7.72;;
43048;SDS011;28673;44.412;11.918;2023-04-03T02:58:45;10.10;;;7.43;;
43048;SDS011;28673;44.412;11.918;2023-04-03T03:01:18;8.25;;;7.05;;
43048;SDS011;28673;44.412;11.918;2023-04-03T03:03:47;13.10;;;7.63;;
43048;SDS011;28673;44.412;11.918;2023-04-03T03:06:14;8.38;;;6.90;;
43048;SDS011;28673;44.412;11.918;2023-04-03T03:08:42;11.90;;;7.32;;
43048;SDS011;28673;44.412;11.918;2023-04-03T03:11:11;13.35;;;7.45;;
43048;SDS011;28673;44.412;11.918;2023-04-03T03:13:37;9.30;;;7.03;;
43048;SDS011;28673;44.412;11.918;2023-04-03T03:16:03;10.25;;;7.60;;
43048;SDS011;28673;44.412;11.918;2023-04-03T03:18:33;10.50;;;6.80;;
43048;SDS011;28673;44.412;11.918;2023-04-03T03:21:00;11.20;;;7.10;;
43048;SDS011;28673;44.412;11.918;2023-04-03T03:23:27;8.30;;;7.00;;
43048;SDS011;28673;44.412;11.918;2023-04-03T03:25:55;11.82;;;7.60;;
43048;SDS011;28673;44.412;11.918;2023-04-03T03:28:22;8.65;;;6.55;;
43048;SDS011;28673;44.412;11.918;2023-04-03T03:30:48;9.77;;;6.95;;
43048;SDS011;28673;44.412;11.918;2023-04-03T03:33:14;9.63;;;6.97;;
43048;SDS011;28673;44.412;11.918;2023-04-03T03:35:41;9.30;;;7.15;;
43048;SDS011;28673;44.412;11.918;2023-04-03T03:38:07;8.25;;;6.25;;
43048;SDS011;28673;44.412;11.918;2023-04-03T03:40:33;9.05;;;6.72;;
43048;SDS011;28673;44.412;11.918;2023-04-03T03:42:58;13.00;;;7.07;;
43048;SDS011;28673;44.412;11.918;2023-04-03T03:45:24;9.00;;;6.43;;
43048;SDS011;28673;44.412;11.918;2023-04-03T03:47:50;13.82;;;7.00;;
43048;SDS011;28673;44.412;11.918;2023-04-03T03:50:16;8.88;;;6.55;;
43048;SDS011;28673;44.412;11.918;2023-04-03T03:52:42;8.98;;;6.72;;
43048;SDS011;28673;44.412;11.918;2023-04-03T03:55:08;9.50;;;7.57;;
43048;SDS011;28673;44.412;11.918;2023-04-03T03:57:35;6.47;;;5.88;;
43048;SDS011;28673;44.412;11.918;2023-04-03T04:00:02;8.27;;;6.47;;
43048;SDS011;28673;44.412;11.918;2023-04-03T04:02:29;11.82;;;6.85;;
43048;SDS011;28673;44.412;11.918;2023-04-03T04:04:56;8.23;;;6.18;;
43048;SDS011;28673;44.412;11.918;2023-04-03T04:07:22;8.15;;;6.82;;
43048;SDS011;28673;44.412;11.918;2023-04-03T04:09:48;18.23;;;9.30;;
43048;SDS011;28673;44.412;11.918;2023-04-03T04:12:14;10.48;;;6.05;;
43048;SDS011;28673;44.412;11.918;2023-04-03T04:14:41;7.53;;;6.43;;
43048;SDS011;28673;44.412;11.918;2023-04-03T04:17:08;9.10;;;6.53;;
43048;SDS011;28673;44.412;11.918;2023-04-03T04:19:35;10.75;;;7.53;;
43048;SDS011;28673;44.412;11.918;2023-04-03T04:22:01;22.30;;;7.85;;
43048;SDS011;28673;44.412;11.918;2023-04-03T04:24:29;14.48;;;6.55;;
43048;SDS011;28673;44.412;11.918;2023-04-03T04:26:55;9.45;;;6.82;;
43048;SDS011;28673;44.412;11.918;2023-04-03T04:29:22;9.63;;;6.68;;
43048;SDS011;28673;44.412;11.918;2023-04-03T04:31:50;12.65;;;6.97;;
43048;SDS011;28673;44.412;11.918;2023-04-03T04:34:16;11.45;;;6.63;;
43048;SDS011;28673;44.412;11.918;2023-04-03T04:36:47;10.47;;;6.80;;
43048;SDS011;28673;44.412;11.918;2023-04-03T04:39:15;9.90;;;7.30;;
43048;SDS011;28673;44.412;11.918;2023-04-03T04:44:14;9.93;;;6.88;;
43048;SDS011;28673;44.412;11.918;2023-04-03T04:46:40;11.32;;;7.28;;
43048;SDS011;28673;44.412;11.918;2023-04-03T04:49:12;15.63;;;8.43;;
43048;SDS011;28673;44.412;11.918;2023-04-03T04:51:44;15.07;;;7.70;;
43048;SDS011;28673;44.412;11.918;2023-04-03T04:54:13;13.15;;;8.70;;
43048;SDS011;28673;44.412;11.918;2023-04-03T04:56:42;14.05;;;8.30;;
43048;SDS011;28673;44.412;11.918;2023-04-03T04:59:14;13.18;;;8.27;;
43048;SDS011;28673;44.412;11.918;2023-04-03T05:01:46;13.55;;;7.43;;
43048;SDS011;28673;44.412;11.918;2023-04-03T05:04:45;10.55;;;7.25;;
43048;SDS011;28673;44.412;11.918;2023-04-03T05:07:18;12.32;;;7.55;;
43048;SDS011;28673;44.412;11.918;2023-04-03T05:09:50;9.63;;;6.85;;
43048;SDS011;28673;44.412;11.918;2023-04-03T05:12:16;10.07;;;7.57;;
43048;SDS011;28673;44.412;11.918;2023-04-03T05:14:49;9.75;;;7.10;;
43048;SDS011;28673;44.412;11.918;2023-04-03T05:17:18;10.88;;;8.07;;
43048;SDS011;28673;44.412;11.918;2023-04-03T05:19:51;11.50;;;7.13;;
43048;SDS011;28673;44.412;11.918;2023-04-03T05:22:22;10.45;;;7.80;;
43048;SDS011;28673;44.412;11.918;2023-04-03T05:24:54;8.43;;;5.03;;
43048;SDS011;28673;44.412;11.918;2023-04-03T05:27:21;12.43;;;7.32;;
43048;SDS011;28673;44.412;11.918;2023-04-03T05:29:55;10.23;;;6.97;;
43048;SDS011;28673;44.412;11.918;2023-04-03T05:32:25;10.40;;;7.88;;
43048;SDS011;28673;44.412;11.918;2023-04-03T05:35:14;10.10;;;7.47;;
43048;SDS011;28673;44.412;11.918;2023-04-03T05:40:24;10.23;;;7.45;;
43048;SDS011;28673;44.412;11.918;2023-04-03T05:42:53;12.90;;;9.68;;
43048;SDS011;28673;44.412;11.918;2023-04-03T05:45:21;10.85;;;8.68;;
43048;SDS011;28673;44.412;11.918;2023-04-03T05:47:50;13.13;;;8.65;;
43048;SDS011;28673;44.412;11.918;2023-04-03T05:50:16;10.85;;;8.20;;
43048;SDS011;28673;44.412;11.918;2023-04-03T05:52:43;21.30;;;7.97;;
43048;SDS011;28673;44.412;11.918;2023-04-03T05:55:13;14.52;;;9.27;;
43048;SDS011;28673;44.412;11.918;2023-04-03T05:57:49;15.23;;;8.68;;
43048;SDS011;28673;44.412;11.918;2023-04-03T06:00:38;16.15;;;9.90;;
43048;SDS011;28673;44.412;11.918;2023-04-03T06:03:11;13.48;;;8.98;;
43048;SDS011;28673;44.412;11.918;2023-04-03T06:05:37;12.82;;;9.63;;
43048;SDS011;28673;44.412;11.918;2023-04-03T06:08:03;14.68;;;10.25;;
43048;SDS011;28673;44.412;11.918;2023-04-03T06:10:30;12.32;;;9.15;;
43048;SDS011;28673;44.412;11.918;2023-04-03T06:12:56;17.50;;;9.85;;
43048;SDS011;28673;44.412;11.918;2023-04-03T06:15:22;11.90;;;9.45;;
43048;SDS011;28673;44.412;11.918;2023-04-03T06:17:51;15.80;;;10.23;;
43048;SDS011;28673;44.412;11.918;2023-04-03T06:20:21;13.68;;;9.50;;
43048;SDS011;28673;44.412;11.918;2023-04-03T06:22:48;15.50;;;10.38;;
43048;SDS011;28673;44.412;11.918;2023-04-03T06:28:25;18.40;;;10.85;;
43048;SDS011;28673;44.412;11.918;2023-04-03T06:30:51;15.55;;;11.13;;
43048;SDS011;28673;44.412;11.918;2023-04-03T06:33:35;18.55;;;12.10;;
43048;SDS011;28673;44.412;11.918;2023-04-03T06:36:03;20.65;;;12.63;;
43048;SDS011;28673;44.412;11.918;2023-04-03T06:38:27;19.08;;;11.70;;
43048;SDS011;28673;44.412;11.918;2023-04-03T06:40:53;20.88;;;12.80;;
43048;SDS011;28673;44.412;11.918;2023-04-03T06:43:21;17.55;;;12.23;;
43048;SDS011;28673;44.412;11.918;2023-04-03T06:45:47;20.42;;;12.93;;
43048;SDS011;28673;44.412;11.918;2023-04-03T06:48:13;17.80;;;12.68;;
43048;SDS011;28673;44.412;11.918;2023-04-03T06:50:39;19.60;;;12.63;;
43048;SDS011;28673;44.412;11.918;2023-04-03T06:53:06;25.00;;;11.82;;
43048;SDS011;28673;44.412;11.918;2023-04-03T06:55:32;28.20;;;14.00;;
43048;SDS011;28673;44.412;11.918;2023-04-03T06:57:58;26.75;;;13.23;;
43048;SDS011;28673;44.412;11.918;2023-04-03T07:00:24;29.58;;;12.52;;
43048;SDS011;28673;44.412;11.918;2023-04-03T07:02:51;19.35;;;12.10;;
43048;SDS011;28673;44.412;11.918;2023-04-03T07:05:17;19.50;;;12.65;;
43048;SDS011;28673;44.412;11.918;2023-04-03T07:07:46;19.75;;;11.15;;
43048;SDS011;28673;44.412;11.918;2023-04-03T07:10:12;24.52;;;12.45;;
43048;SDS011;28673;44.412;11.918;2023-04-03T07:12:38;16.58;;;10.88;;
43048;SDS011;28673;44.412;11.918;2023-04-03T07:15:07;12.77;;;9.38;;
43048;SDS011;28673;44.412;11.918;2023-04-03T07:17:33;12.82;;;8.55;;
43048;SDS011;28673;44.412;11.918;2023-04-03T07:20:01;15.35;;;8.38;;
43048;SDS011;28673;44.412;11.918;2023-04-03T07:22:33;11.20;;;7.05;;
43048;SDS011;28673;44.412;11.918;2023-04-03T07:24:59;11.20;;;7.00;;
43048;SDS011;28673;44.412;11.918;2023-04-03T07:27:26;10.18;;;7.07;;
43048;SDS011;28673;44.412;11.918;2023-04-03T07:29:52;17.38;;;8.02;;
43048;SDS011;28673;44.412;11.918;2023-04-03T07:32:18;12.13;;;7.35;;
43048;SDS011;28673;44.412;11.918;2023-04-03T07:34:44;11.60;;;7.63;;
43048;SDS011;28673;44.412;11.918;2023-04-03T07:37:10;13.57;;;7.38;;
43048;SDS011;28673;44.412;11.918;2023-04-03T07:39:36;10.45;;;6.53;;
43048;SDS011;28673;44.412;11.918;2023-04-03T07:42:02;9.45;;;5.97;;
43048;SDS011;28673;44.412;11.918;2023-04-03T07:44:28;6.55;;;5.10;;
43048;SDS011;28673;44.412;11.918;2023-04-03T07:46:54;11.32;;;4.20;;
43048;SDS011;28673;44.412;11.918;2023-04-03T07:49:21;5.88;;;3.55;;
43048;SDS011;28673;44.412;11.918;2023-04-03T07:51:49;7.68;;;4.63;;
43048;SDS011;28673;44.412;11.918;2023-04-03T07:54:16;8.50;;;4.03;;
43048;SDS011;28673;44.412;11.918;2023-04-03T07:56:42;6.28;;;3.92;;
43048;SDS011;28673;44.412;11.918;2023-04-03T07:59:09;9.57;;;3.95;;
43048;SDS011;28673;44.412;11.918;2023-04-03T08:01:36;5.45;;;3.20;;
43048;SDS011;28673;44.412;11.918;2023-04-03T08:04:02;10.15;;;2.58;;
43048;SDS011;28673;44.412;11.918;2023-04-03T08:06:28;3.10;;;2.17;;
43048;SDS011;28673;44.412;11.918;2023-04-03T08:08:56;7.55;;;2.20;;
43048;SDS011;28673;44.412;11.918;2023-04-03T08:11:24;7.53;;;3.65;;
43048;SDS011;28673;44.412;11.918;2023-04-03T08:13:51;5.47;;;2.33;;
43048;SDS011;28673;44.412;11.918;2023-04-03T08:16:18;7.55;;;2.42;;
43048;SDS011;28673;44.412;11.918;2023-04-03T08:18:47;6.05;;;2.58;;
43048;SDS011;28673;44.412;11.918;2023-04-03T08:21:13;2.28;;;2.00;;
43048;SDS011;28673;44.412;11.918;2023-04-03T08:23:40;5.68;;;2.20;;
43048;SDS011;28673;44.412;11.918;2023-04-03T08:26:11;2.80;;;2.20;;
43048;SDS011;28673;44.412;11.918;2023-04-03T08:28:39;4.00;;;1.80;;
43048;SDS011;28673;44.412;11.918;2023-04-03T08:31:06;9.27;;;2.33;;
43048;SDS011;28673;44.412;11.918;2023-04-03T08:33:36;8.95;;;3.10;;
43048;SDS011;28673;44.412;11.918;2023-04-03T08:36:03;5.28;;;2.55;;
43048;SDS011;28673;44.412;11.918;2023-04-03T08:38:40;9.40;;;3.20;;
43048;SDS011;28673;44.412;11.918;2023-04-03T08:47:04;5.07;;;2.10;;
43048;SDS011;28673;44.412;11.918;2023-04-03T08:49:45;8.45;;;2.25;;
43048;SDS011;28673;44.412;11.918;2023-04-03T08:52:23;5.50;;;2.58;;
43048;SDS011;28673;44.412;11.918;2023-04-03T08:55:03;7.35;;;2.22;;
43048;SDS011;28673;44.412;11.918;2023-04-03T08:57:33;10.70;;;2.35;;
43048;SDS011;28673;44.412;11.918;2023-04-03T09:00:05;4.82;;;2.70;;
43048;SDS011;28673;44.412;11.918;2023-04-03T09:02:42;3.88;;;2.15;;
43048;SDS011;28673;44.412;11.918;2023-04-03T09:05:11;5.97;;;1.92;;
43048;SDS011;28673;44.412;11.918;2023-04-03T09:07:44;8.90;;;2.85;;
43048;SDS011;28673;44.412;11.918;2023-04-03T09:10:13;7.28;;;1.88;;
43048;SDS011;28673;44.412;11.918;2023-04-03T09:12:44;9.48;;;3.78;;
43048;SDS011;28673;44.412;11.918;2023-04-03T09:15:22;5.53;;;2.70;;
43048;SDS011;28673;44.412;11.918;2023-04-03T09:23:13;2.67;;;1.53;;
43048;SDS011;28673;44.412;11.918;2023-04-03T09:25:46;5.80;;;1.77;;
43048;SDS011;28673;44.412;11.918;2023-04-03T09:28:15;3.55;;;1.45;;
43048;SDS011;28673;44.412;11.918;2023-04-03T09:30:41;7.90;;;1.88;;
43048;SDS011;28673;44.412;11.918;2023-04-03T09:33:07;4.57;;;2.15;;
43048;SDS011;28673;44.412;11.918;2023-04-03T09:35:35;3.75;;;2.15;;
43048;SDS011;28673;44.412;11.918;2023-04-03T09:40:39;6.22;;;2.58;;
43048;SDS011;28673;44.412;11.918;2023-04-03T09:45:48;2.00;;;1.02;;
43048;SDS011;28673;44.412;11.918;2023-04-03T09:48:22;4.10;;;2.47;;
43048;SDS011;28673;44.412;11.918;2023-04-03T09:53:26;1.77;;;1.40;;
43048;SDS011;28673;44.412;11.918;2023-04-03T09:56:05;4.97;;;2.03;;
43048;SDS011;28673;44.412;11.918;2023-04-03T09:58:51;7.80;;;2.10;;
43048;SDS011;28673;44.412;11.918;2023-04-03T10:04:04;3.63;;;1.73;;
43048;SDS011;28673;44.412;11.918;2023-04-03T10:06:31;9.40;;;1.50;;
43048;SDS011;28673;44.412;11.918;2023-04-03T10:09:05;7.87;;;1.50;;
43048;SDS011;28673;44.412;11.918;2023-04-03T10:14:33;4.93;;;1.60;;
43048;SDS011;28673;44.412;11.918;2023-04-03T10:41:00;3.38;;;1.50;;
43048;SDS011;28673;44.412;11.918;2023-04-03T10:47:11;2.83;;;1.17;;
43048;SDS011;28673;44.412;11.918;2023-04-03T10:57:46;2.65;;;1.60;;
43048;SDS011;28673;44.412;11.918;2023-04-03T11:03:44;8.38;;;1.55;;
43048;SDS011;28673;44.412;11.918;2023-04-03T11:06:01;4.38;;;1.88;;
43048;SDS011;28673;44.412;11.918;2023-04-03T11:08:35;2.83;;;1.80;;
43048;SDS011;28673;44.412;11.918;2023-04-03T11:11:11;4.75;;;1.48;;
43048;SDS011;28673;44.412;11.918;2023-04-03T11:13:41;3.10;;;1.42;;
43048;SDS011;28673;44.412;11.918;2023-04-03T11:16:30;1.17;;;0.88;;
43048;SDS011;28673;44.412;11.918;2023-04-03T11:19:02;5.78;;;1.15;;
43048;SDS011;28673;44.412;11.918;2023-04-03T11:24:39;7.10;;;1.23;;
43048;SDS011;28673;44.412;11.918;2023-04-03T11:27:11;1.50;;;1.08;;
43048;SDS011;28673;44.412;11.918;2023-04-03T11:29:44;3.20;;;1.17;;
43048;SDS011;28673;44.412;11.918;2023-04-03T11:35:27;3.55;;;1.30;;
43048;SDS011;28673;44.412;11.918;2023-04-03T11:37:53;4.93;;;1.25;;
43048;SDS011;28673;44.412;11.918;2023-04-03T11:40:24;5.20;;;1.20;;
43048;SDS011;28673;44.412;11.918;2023-04-03T11:43:06;4.55;;;1.55;;
43048;SDS011;28673;44.412;11.918;2023-04-03T11:45:50;3.63;;;1.05;;
43048;SDS011;28673;44.412;11.918;2023-04-03T12:01:53;2.92;;;1.45;;
43048;SDS011;28673;44.412;11.918;2023-04-03T12:04:24;5.47;;;1.98;;
43048;SDS011;28673;44.412;11.918;2023-04-03T12:06:53;2.55;;;1.40;;
43048;SDS011;28673;44.412;11.918;2023-04-03T12:18:31;2.92;;;1.48;;
43048;SDS011;28673;44.412;11.918;2023-04-03T12:21:08;3.20;;;1.55;;
43048;SDS011;28673;44.412;11.918;2023-04-03T12:23:35;15.13;;;2.28;;
43048;SDS011;28673;44.412;11.918;2023-04-03T12:26:21;7.70;;;1.40;;
43048;SDS011;28673;44.412;11.918;2023-04-03T12:28:51;4.13;;;1.30;;
43048;SDS011;28673;44.412;11.918;2023-04-03T12:31:18;3.17;;;1.35;;
43048;SDS011;28673;44.412;11.918;2023-04-03T12:33:57;5.13;;;1.20;;
43048;SDS011;28673;44.412;11.918;2023-04-03T12:40:09;1.50;;;0.83;;
43048;SDS011;28673;44.412;11.918;2023-04-03T12:48:51;1.58;;;1.20;;
43048;SDS011;28673;44.412;11.918;2023-04-03T12:51:28;6.93;;;1.40;;
43048;SDS011;28673;44.412;11.918;2023-04-03T12:54:50;2.45;;;1.25;;
43048;SDS011;28673;44.412;11.918;2023-04-03T13:02:02;2.88;;;1.30;;
43048;SDS011;28673;44.412;11.918;2023-04-03T13:04:28;4.07;;;1.20;;
43048;SDS011;28673;44.412;11.918;2023-04-03T13:06:56;6.57;;;1.42;;
43048;SDS011;28673;44.412;11.918;2023-04-03T13:09:26;4.20;;;1.60;;
43048;SDS011;28673;44.412;11.918;2023-04-03T13:12:08;1.75;;;1.23;;
43048;SDS011;28673;44.412;11.918;2023-04-03T13:14:37;3.28;;;1.30;;
43048;SDS011;28673;44.412;11.918;2023-04-03T13:17:05;8.20;;;1.63;;
43048;SDS011;28673;44.412;11.918;2023-04-03T13:19:37;1.48;;;1.10;;
43048;SDS011;28673;44.412;11.918;2023-04-03T13:22:27;3.10;;;1.30;;
43048;SDS011;28673;44.412;11.918;2023-04-03T13:24:53;1.50;;;1.00;;
43048;SDS011;28673;44.412;11.918;2023-04-03T13:27:22;3.80;;;1.15;;
43048;SDS011;28673;44.412;11.918;2023-04-03T13:29:50;4.88;;;1.08;;
43048;SDS011;28673;44.412;11.918;2023-04-03T13:32:19;6.35;;;1.35;;
43048;SDS011;28673;44.412;11.918;2023-04-03T13:34:47;1.10;;;1.00;;
43048;SDS011;28673;44.412;11.918;2023-04-03T13:37:28;1.80;;;1.02;;
43048;SDS011;28673;44.412;11.918;2023-04-03T13:40:00;5.95;;;1.25;;
43048;SDS011;28673;44.412;11.918;2023-04-03T13:42:30;8.38;;;2.00;;
43048;SDS011;28673;44.412;11.918;2023-04-03T13:47:45;2.00;;;0.90;;
43048;SDS011;28673;44.412;11.918;2023-04-03T13:52:43;3.97;;;1.23;;
43048;SDS011;28673;44.412;11.918;2023-04-03T13:55:28;2.33;;;1.20;;
43048;SDS011;28673;44.412;11.918;2023-04-03T14:00:39;3.22;;;1.58;;
43048;SDS011;28673;44.412;11.918;2023-04-03T14:05:54;2.13;;;1.02;;
43048;SDS011;28673;44.412;11.918;2023-04-03T14:08:20;3.70;;;1.10;;
43048;SDS011;28673;44.412;11.918;2023-04-03T14:10:47;3.03;;;1.38;;
43048;SDS011;28673;44.412;11.918;2023-04-03T14:13:15;10.00;;;2.20;;
43048;SDS011;28673;44.412;11.918;2023-04-03T14:15:42;3.08;;;1.20;;
43048;SDS011;28673;44.412;11.918;2023-04-03T14:18:12;4.25;;;1.27;;
43048;SDS011;28673;44.412;11.918;2023-04-03T14:20:39;3.67;;;1.10;;
43048;SDS011;28673;44.412;11.918;2023-04-03T14:23:05;4.03;;;1.27;;
43048;SDS011;28673;44.412;11.918;2023-04-03T14:25:32;1.98;;;1.30;;
43048;SDS011;28673;44.412;11.918;2023-04-03T14:27:58;2.05;;;1.13;;
43048;SDS011;28673;44.412;11.918;2023-04-03T14:30:34;7.25;;;1.73;;
43048;SDS011;28673;44.412;11.918;2023-04-03T14:33:02;1.55;;;1.08;;
43048;SDS011;28673;44.412;11.918;2023-04-03T14:35:28;4.65;;;1.10;;
43048;SDS011;28673;44.412;11.918;2023-04-03T14:37:54;3.22;;;1.38;;
43048;SDS011;28673;44.412;11.918;2023-04-03T14:40:22;1.90;;;1.10;;
43048;SDS011;28673;44.412;11.918;2023-04-03T14:42:50;0.83;;;0.70;;
43048;SDS011;28673;44.412;11.918;2023-04-03T14:45:20;2.15;;;1.00;;
43048;SDS011;28673;44.412;11.918;2023-04-03T14:47:47;5.30;;;1.38;;
43048;SDS011;28673;44.412;11.918;2023-04-03T14:50:18;2.72;;;1.20;;
43048;SDS011;28673;44.412;11.918;2023-04-03T14:52:46;5.07;;;1.40;;
43048;SDS011;28673;44.412;11.918;2023-04-03T14:55:16;1.38;;;1.00;;
43048;SDS011;28673;44.412;11.918;2023-04-03T14:57:49;2.78;;;0.80;;
43048;SDS011;28673;44.412;11.918;2023-04-03T15:00:17;1.23;;;0.90;;
43048;SDS011;28673;44.412;11.918;2023-04-03T15:02:44;2.72;;;1.30;;
43048;SDS011;28673;44.412;11.918;2023-04-03T15:05:11;1.70;;;0.80;;
43048;SDS011;28673;44.412;11.918;2023-04-03T15:07:44;1.92;;;1.08;;
43048;SDS011;28673;44.412;11.918;2023-04-03T15:10:17;2.33;;;1.35;;
43048;SDS011;28673;44.412;11.918;2023-04-03T15:12:49;3.03;;;0.90;;
43048;SDS011;28673;44.412;11.918;2023-04-03T15:15:18;2.05;;;0.90;;
43048;SDS011;28673;44.412;11.918;2023-04-03T15:17:46;2.42;;;0.90;;
43048;SDS011;28673;44.412;11.918;2023-04-03T15:20:19;4.30;;;1.15;;
43048;SDS011;28673;44.412;11.918;2023-04-03T15:22:47;5.13;;;2.15;;
43048;SDS011;28673;44.412;11.918;2023-04-03T15:25:13;5.47;;;1.17;;
43048;SDS011;28673;44.412;11.918;2023-04-03T15:27:40;1.70;;;0.95;;
43048;SDS011;28673;44.412;11.918;2023-04-03T15:30:06;1.63;;;0.98;;
43048;SDS011;28673;44.412;11.918;2023-04-03T15:32:34;4.72;;;1.33;;
43048;SDS011;28673;44.412;11.918;2023-04-03T15:35:00;5.40;;;1.52;;
43048;SDS011;28673;44.412;11.918;2023-04-03T15:37:27;3.92;;;1.92;;
43048;SDS011;28673;44.412;11.918;2023-04-03T15:39:56;4.35;;;1.33;;
43048;SDS011;28673;44.412;11.918;2023-04-03T15:42:21;5.53;;;1.67;;
43048;SDS011;28673;44.412;11.918;2023-04-03T15:44:47;2.15;;;1.50;;
43048;SDS011;28673;44.412;11.918;2023-04-03T15:47:13;1.73;;;0.90;;
43048;SDS011;28673;44.412;11.918;2023-04-03T15:49:39;1.95;;;1.20;;
43048;SDS011;28673;44.412;11.918;2023-04-03T15:52:05;5.13;;;1.45;;
43048;SDS011;28673;44.412;11.918;2023-04-03T15:54:32;5.88;;;3.15;;
43048;SDS011;28673;44.412;11.918;2023-04-03T15:56:57;5.43;;;1.02;;
43048;SDS011;28673;44.412;11.918;2023-04-03T15:59:23;1.90;;;1.38;;
43048;SDS011;28673;44.412;11.918;2023-04-03T16:01:50;3.65;;;1.48;;
43048;SDS011;28673;44.412;11.918;2023-04-03T16:04:16;6.05;;;1.33;;
43048;SDS011;28673;44.412;11.918;2023-04-03T16:06:43;6.50;;;1.80;;
43048;SDS011;28673;44.412;11.918;2023-04-03T16:09:09;2.72;;;1.02;;
43048;SDS011;28673;44.412;11.918;2023-04-03T16:11:36;5.32;;;1.10;;
43048;SDS011;28673;44.412;11.918;2023-04-03T16:14:04;2.17;;;1.23;;
43048;SDS011;28673;44.412;11.918;2023-04-03T16:16:31;2.53;;;1.40;;
43048;SDS011;28673;44.412;11.918;2023-04-03T16:18:57;5.60;;;1.25;;
43048;SDS011;28673;44.412;11.918;2023-04-03T16:21:26;5.15;;;1.42;;
43048;SDS011;28673;44.412;11.918;2023-04-03T16:23:52;6.18;;;1.23;;
43048;SDS011;28673;44.412;11.918;2023-04-03T16:26:20;1.67;;;1.35;;
43048;SDS011;28673;44.412;11.918;2023-04-03T16:28:46;4.15;;;1.38;;
43048;SDS011;28673;44.412;11.918;2023-04-03T16:31:12;3.17;;;1.27;;
43048;SDS011;28673;44.412;11.918;2023-04-03T16:33:38;2.97;;;1.42;;
43048;SDS011;28673;44.412;11.918;2023-04-03T16:36:04;7.07;;;1.42;;
43048;SDS011;28673;44.412;11.918;2023-04-03T16:38:33;11.70;;;2.33;;
43048;SDS011;28673;44.412;11.918;2023-04-03T16:40:59;5.38;;;1.30;;
43048;SDS011;28673;44.412;11.918;2023-04-03T16:43:29;4.88;;;1.45;;
43048;SDS011;28673;44.412;11.918;2023-04-03T16:45:56;1.90;;;1.05;;
43048;SDS011;28673;44.412;11.918;2023-04-03T16:48:22;5.13;;;1.50;;
43048;SDS011;28673;44.412;11.918;2023-04-03T16:50:48;9.70;;;1.80;;
43048;SDS011;28673;44.412;11.918;2023-04-03T16:53:18;5.50;;;1.58;;